Riverton, Louisiana
Current Conditions -  °F | °C
As of 10:53 AM on Friday 24 Oct 2014 (Local Time) from KMLU Reporting Station
Clear Clear  
Wind Chill: 63°   Ceiling: Unl
Heat Index: 63°   Visibility: 10mi
Dew Point: 49°   Wind: 6mph
Humidity: 60%   Direction: 340°NNW
Pressure: 30.2"   Gusts: NA
Location:  32.1631°N, 92.1971°W
Report Text: KMLU 241553Z 34005KT 10SM CLR 17/09 A3020 RMK AO2 SLP226 T01720094
Loading
Personal Weather Stations






























Interactive Weather Map
Tropical Storm Tracking
New forecast layout! Learn more

10-Day Weather Forecast

Advertisements
Track Severe Weather on mobile